Tulsa, OK (74135)

1:09 PM CST on February 10, 2016 (GMT -0600)
36th & Harvard Ave | | Change Station
CLOSE
Current Station
Personal Weather Station
Location: Tulsa, OK
Elevation: 748 ft
Nearby Weather Stations
Active Advisory: Fire Weather Watch

Elev 748 ft 36.11 °N, 95.94 °W | Updated 4 minutes ago

Clear
Clear
53.4 °F
Feels Like 53.4 °F
N
7.6
Wind Variable Wind from NW
Gusts 15.9 mph

Today
High -- | Low -- °F
--% Chance of Precip.
Yesterday
High -- | Low -- °F
Precip. -- in
Pressure 30.11 in
Visibility 10.0 miles
Clouds Clear
Dew Point 26 °F
Humidity 35%
Rainfall 0.00 in
Snow Depth Not available.
7:16 AM 5:59 PM
Waxing Crescent, 6% visible
METAR KRVS 101853Z 21008G17KT 10SM CLR 13/M04 A3009 RMK AO2 PRESFR SLP195 T01281039
Pressure 30.11 in
Visibility 10.0 miles
Clouds Clear
Dew Point 26 °F
Humidity 35%
Rainfall 0.00 in
Snow Depth Not available.
7:16 AM 5:59 PM
Waxing Crescent, 6% visible
METAR KRVS 101853Z 21008G17KT 10SM CLR 13/M04 A3009 RMK AO2 PRESFR SLP195 T01281039

10-Day Weather Forecast

Almanac

Astronomy

Feb. 10, 2016 Rise Set
Actual Time
Civil Twilight
Nautical Twilight
Astronomical Twilight
Moon
Length of Visible Light
Length of Day
Tomorrow will be .
, % of the Moon is Illuminated

Today's Extremes

State Highs State Lows

Community

WunderPhotos

Upload Photos

1,891,921 photos uploaded!

WunderBlog® & News

Nearby

Air Quality

  Air Quality AQ Index Pollutant
Not available.

Snow Depth

Station Depth Elevation

Earthquake Activity

City Distance Mag. Time & Date
Minimum magnitude displayed is 2.5.

Coastal Water Temperatures

Place Temperature

Stations

Nearby Weather Stations

Station Location Temp. Windchill Dew Point Humidity Wind Precip. Elev Updated Type
                   

Watches & Warnings

Fire Weather Watch
Issued: 3:47 AM CST Feb. 10, 2016 – National Weather Service

... Fire Weather Watch in effect from noon today through this
afternoon for very dry and windy conditions for locations along
and west of Highway 75...

The National Weather Service in Tulsa has issued a Fire Weather
Watch... which is in effect from noon CST today through this
afternoon.

* Affected area... in Oklahoma... Osage... Washington... Pawnee...
Tulsa... creek... Okfuskee... and Okmulgee counties.

* Wind... southwesterly winds increasing to 15 to 25 mph with gusts
to around 30 mph.

* Humidity... afternoon humidity levels around 25 percent.

* Temperature... high temperatures in the mid to upper 60s.

* Impacts... any fires that develop will likely spread rapidly.
Outdoor burning is not recommended.

Precautionary/preparedness actions...

* a Fire Weather Watch means that critical fire weather
   conditions are forecast to occur. Later forecasts should be
   monitored for updated fire weather conditions for this
   afternoon.